sensor_id;sensor_type;location;lat;lon;timestamp;pressure;altitude;pressure_sealevel;temperature;humidity
43701;BME280;58809;47.984;7.964;2023-09-30T00:02:26;98142.19;;;14.52;100.00
43701;BME280;58809;47.984;7.964;2023-09-30T00:05:28;98142.63;;;14.41;100.00
43701;BME280;58809;47.984;7.964;2023-09-30T00:08:30;98136.78;;;14.31;100.00
43701;BME280;58809;47.984;7.964;2023-09-30T00:11:32;98136.38;;;14.19;100.00
43701;BME280;58809;47.984;7.964;2023-09-30T00:14:33;98132.47;;;14.06;100.00
43701;BME280;58809;47.984;7.964;2023-09-30T00:17:35;98135.88;;;14.00;100.00
43701;BME280;58809;47.984;7.964;2023-09-30T00:20:36;98126.88;;;13.86;100.00
43701;BME280;58809;47.984;7.964;2023-09-30T00:23:38;98117.00;;;13.72;100.00
43701;BME280;58809;47.984;7.964;2023-09-30T00:26:40;98120.09;;;13.61;100.00
43701;BME280;58809;47.984;7.964;2023-09-30T00:29:42;98110.31;;;13.53;100.00
43701;BME280;58809;47.984;7.964;2023-09-30T00:32:43;98109.03;;;13.49;100.00
43701;BME280;58809;47.984;7.964;2023-09-30T00:35:45;98101.41;;;13.46;100.00
43701;BME280;58809;47.984;7.964;2023-09-30T00:38:47;98103.06;;;13.47;100.00
43701;BME280;58809;47.984;7.964;2023-09-30T00:41:49;98112.34;;;13.51;100.00
43701;BME280;58809;47.984;7.964;2023-09-30T00:44:51;98120.13;;;13.53;100.00
43701;BME280;58809;47.984;7.964;2023-09-30T00:47:52;98128.28;;;13.51;100.00
43701;BME280;58809;47.984;7.964;2023-09-30T00:50:54;98124.31;;;13.47;100.00
43701;BME280;58809;47.984;7.964;2023-09-30T00:54:01;98125.56;;;13.36;100.00
43701;BME280;58809;47.984;7.964;2023-09-30T00:57:03;98123.44;;;13.23;100.00
43701;BME280;58809;47.984;7.964;2023-09-30T01:00:05;98120.88;;;13.07;100.00
43701;BME280;58809;47.984;7.964;2023-09-30T01:03:08;98112.97;;;12.99;100.00
43701;BME280;58809;47.984;7.964;2023-09-30T01:06:10;98121.66;;;12.84;100.00
43701;BME280;58809;47.984;7.964;2023-09-30T01:09:11;98122.38;;;12.70;100.00
43701;BME280;58809;47.984;7.964;2023-09-30T01:12:14;98114.44;;;12.62;100.00
43701;BME280;58809;47.984;7.964;2023-09-30T01:15:16;98113.00;;;12.51;100.00
43701;BME280;58809;47.984;7.964;2023-09-30T01:18:17;98123.13;;;12.39;100.00
43701;BME280;58809;47.984;7.964;2023-09-30T01:21:19;98109.91;;;12.31;100.00
43701;BME280;58809;47.984;7.964;2023-09-30T01:24:22;98108.59;;;12.19;100.00
43701;BME280;58809;47.984;7.964;2023-09-30T01:27:23;98109.63;;;12.09;100.00
43701;BME280;58809;47.984;7.964;2023-09-30T01:30:27;98105.47;;;11.99;100.00
43701;BME280;58809;47.984;7.964;2023-09-30T01:33:28;98104.31;;;11.93;100.00
43701;BME280;58809;47.984;7.964;2023-09-30T01:36:30;98112.09;;;11.86;100.00
43701;BME280;58809;47.984;7.964;2023-09-30T01:39:32;98109.94;;;11.82;100.00
43701;BME280;58809;47.984;7.964;2023-09-30T01:42:34;98107.28;;;11.82;100.00
43701;BME280;58809;47.984;7.964;2023-09-30T01:45:36;98111.09;;;11.79;100.00
43701;BME280;58809;47.984;7.964;2023-09-30T01:48:38;98102.34;;;11.70;100.00
43701;BME280;58809;47.984;7.964;2023-09-30T01:51:40;98108.59;;;11.61;100.00
43701;BME280;58809;47.984;7.964;2023-09-30T01:54:41;98104.28;;;11.52;100.00
43701;BME280;58809;47.984;7.964;2023-09-30T01:57:43;98098.69;;;11.47;100.00
43701;BME280;58809;47.984;7.964;2023-09-30T02:00:45;98103.63;;;11.42;100.00
43701;BME280;58809;47.984;7.964;2023-09-30T02:03:47;98105.94;;;11.36;100.00
43701;BME280;58809;47.984;7.964;2023-09-30T02:06:48;98112.72;;;11.31;100.00
43701;BME280;58809;47.984;7.964;2023-09-30T02:09:50;98112.88;;;11.21;100.00
43701;BME280;58809;47.984;7.964;2023-09-30T02:12:52;98123.78;;;11.18;100.00
43701;BME280;58809;47.984;7.964;2023-09-30T02:15:54;98129.75;;;11.20;100.00
43701;BME280;58809;47.984;7.964;2023-09-30T02:18:58;98127.41;;;11.17;100.00
43701;BME280;58809;47.984;7.964;2023-09-30T02:22:00;98124.44;;;11.12;100.00
43701;BME280;58809;47.984;7.964;2023-09-30T02:25:02;98121.63;;;11.05;100.00
43701;BME280;58809;47.984;7.964;2023-09-30T02:28:09;98120.09;;;10.94;100.00
43701;BME280;58809;47.984;7.964;2023-09-30T02:31:10;98122.03;;;10.84;100.00
43701;BME280;58809;47.984;7.964;2023-09-30T02:34:12;98125.69;;;10.83;100.00
43701;BME280;58809;47.984;7.964;2023-09-30T02:37:15;98118.03;;;10.80;100.00
43701;BME280;58809;47.984;7.964;2023-09-30T02:40:16;98117.38;;;10.78;100.00
43701;BME280;58809;47.984;7.964;2023-09-30T02:43:18;98123.50;;;10.78;100.00
43701;BME280;58809;47.984;7.964;2023-09-30T02:46:22;98117.69;;;10.75;100.00
43701;BME280;58809;47.984;7.964;2023-09-30T02:49:24;98128.78;;;10.70;100.00
43701;BME280;58809;47.984;7.964;2023-09-30T02:52:26;98135.69;;;10.63;100.00
43701;BME280;58809;47.984;7.964;2023-09-30T02:55:27;98134.50;;;10.57;100.00
43701;BME280;58809;47.984;7.964;2023-09-30T02:58:29;98138.47;;;10.53;100.00
43701;BME280;58809;47.984;7.964;2023-09-30T03:01:31;98135.97;;;10.52;100.00
43701;BME280;58809;47.984;7.964;2023-09-30T03:04:34;98128.19;;;10.50;100.00
43701;BME280;58809;47.984;7.964;2023-09-30T03:07:35;98136.28;;;10.49;100.00
43701;BME280;58809;47.984;7.964;2023-09-30T03:10:37;98146.91;;;10.57;100.00
43701;BME280;58809;47.984;7.964;2023-09-30T03:13:41;98143.63;;;10.63;100.00
43701;BME280;58809;47.984;7.964;2023-09-30T03:16:44;98147.00;;;10.73;100.00
43701;BME280;58809;47.984;7.964;2023-09-30T03:19:46;98151.16;;;10.84;100.00
43701;BME280;58809;47.984;7.964;2023-09-30T03:22:47;98153.84;;;10.92;100.00
43701;BME280;58809;47.984;7.964;2023-09-30T03:25:49;98153.19;;;10.98;100.00
43701;BME280;58809;47.984;7.964;2023-09-30T03:28:51;98144.28;;;11.00;100.00
43701;BME280;58809;47.984;7.964;2023-09-30T03:31:52;98134.00;;;10.96;100.00
43701;BME280;58809;47.984;7.964;2023-09-30T03:34:54;98129.19;;;10.92;100.00
43701;BME280;58809;47.984;7.964;2023-09-30T03:37:55;98121.88;;;10.86;100.00
43701;BME280;58809;47.984;7.964;2023-09-30T03:40:57;98124.53;;;10.86;100.00
43701;BME280;58809;47.984;7.964;2023-09-30T03:43:59;98104.00;;;10.79;100.00
43701;BME280;58809;47.984;7.964;2023-09-30T03:47:01;98091.22;;;10.75;100.00
43701;BME280;58809;47.984;7.964;2023-09-30T03:50:03;98084.91;;;10.68;100.00
43701;BME280;58809;47.984;7.964;2023-09-30T03:53:05;98081.09;;;10.62;100.00
43701;BME280;58809;47.984;7.964;2023-09-30T03:56:11;98078.63;;;10.61;100.00
43701;BME280;58809;47.984;7.964;2023-09-30T03:59:13;98066.53;;;10.58;100.00
43701;BME280;58809;47.984;7.964;2023-09-30T04:02:14;98074.28;;;10.51;100.00
43701;BME280;58809;47.984;7.964;2023-09-30T04:05:16;98087.97;;;10.47;100.00
43701;BME280;58809;47.984;7.964;2023-09-30T04:08:18;98103.66;;;10.40;100.00
43701;BME280;58809;47.984;7.964;2023-09-30T04:11:20;98108.13;;;10.39;100.00
43701;BME280;58809;47.984;7.964;2023-09-30T04:14:22;98109.44;;;10.35;100.00
43701;BME280;58809;47.984;7.964;2023-09-30T04:17:24;98113.91;;;10.35;100.00
43701;BME280;58809;47.984;7.964;2023-09-30T04:20:25;98114.88;;;10.34;100.00
43701;BME280;58809;47.984;7.964;2023-09-30T04:23:28;98115.28;;;10.29;100.00
43701;BME280;58809;47.984;7.964;2023-09-30T04:26:30;98114.44;;;10.20;100.00
43701;BME280;58809;47.984;7.964;2023-09-30T04:29:31;98108.09;;;10.13;100.00
43701;BME280;58809;47.984;7.964;2023-09-30T04:32:33;98112.88;;;10.10;100.00
43701;BME280;58809;47.984;7.964;2023-09-30T04:35:35;98133.22;;;10.09;100.00
43701;BME280;58809;47.984;7.964;2023-09-30T04:38:37;98144.47;;;10.11;100.00
43701;BME280;58809;47.984;7.964;2023-09-30T04:41:41;98136.88;;;10.16;100.00
43701;BME280;58809;47.984;7.964;2023-09-30T04:44:43;98128.63;;;10.19;100.00
43701;BME280;58809;47.984;7.964;2023-09-30T04:47:45;98132.03;;;10.30;100.00
43701;BME280;58809;47.984;7.964;2023-09-30T04:50:47;98133.13;;;10.45;100.00
43701;BME280;58809;47.984;7.964;2023-09-30T04:53:48;98112.66;;;10.55;100.00
43701;BME280;58809;47.984;7.964;2023-09-30T04:56:50;98120.63;;;10.64;100.00
43701;BME280;58809;47.984;7.964;2023-09-30T04:59:52;98143.50;;;10.73;100.00
43701;BME280;58809;47.984;7.964;2023-09-30T05:02:57;98159.09;;;10.84;100.00
43701;BME280;58809;47.984;7.964;2023-09-30T05:06:00;98154.00;;;10.91;100.00
43701;BME280;58809;47.984;7.964;2023-09-30T05:09:02;98153.19;;;10.98;100.00
43701;BME280;58809;47.984;7.964;2023-09-30T05:12:04;98149.06;;;11.04;100.00
43701;BME280;58809;47.984;7.964;2023-09-30T05:15:06;98150.94;;;11.12;100.00
43701;BME280;58809;47.984;7.964;2023-09-30T05:18:08;98150.28;;;11.18;100.00
43701;BME280;58809;47.984;7.964;2023-09-30T05:21:12;98159.09;;;11.27;100.00
43701;BME280;58809;47.984;7.964;2023-09-30T05:24:15;98153.78;;;11.35;100.00
43701;BME280;58809;47.984;7.964;2023-09-30T05:27:16;98159.09;;;11.35;100.00
43701;BME280;58809;47.984;7.964;2023-09-30T05:30:18;98143.69;;;11.30;100.00
43701;BME280;58809;47.984;7.964;2023-09-30T05:33:21;98153.28;;;11.31;100.00
43701;BME280;58809;47.984;7.964;2023-09-30T05:36:24;98152.97;;;11.34;100.00
43701;BME280;58809;47.984;7.964;2023-09-30T05:39:26;98157.16;;;11.45;100.00
43701;BME280;58809;47.984;7.964;2023-09-30T05:42:27;98166.59;;;11.56;100.00
43701;BME280;58809;47.984;7.964;2023-09-30T05:45:32;98179.19;;;11.62;100.00
43701;BME280;58809;47.984;7.964;2023-09-30T05:48:37;98181.38;;;11.67;100.00
43701;BME280;58809;47.984;7.964;2023-09-30T05:51:41;98172.06;;;11.63;100.00
43701;BME280;58809;47.984;7.964;2023-09-30T05:54:43;98158.66;;;11.56;100.00
43701;BME280;58809;47.984;7.964;2023-09-30T05:57:44;98160.28;;;11.57;100.00
43701;BME280;58809;47.984;7.964;2023-09-30T06:00:46;98167.59;;;11.63;100.00
43701;BME280;58809;47.984;7.964;2023-09-30T06:03:48;98182.53;;;11.72;100.00
43701;BME280;58809;47.984;7.964;2023-09-30T06:06:50;98168.78;;;11.85;100.00
43701;BME280;58809;47.984;7.964;2023-09-30T06:09:52;98188.88;;;12.04;100.00
43701;BME280;58809;47.984;7.964;2023-09-30T06:12:56;98179.22;;;12.28;100.00
43701;BME280;58809;47.984;7.964;2023-09-30T06:15:58;98182.19;;;12.49;100.00
43701;BME280;58809;47.984;7.964;2023-09-30T06:19:00;98174.53;;;12.63;100.00
43701;BME280;58809;47.984;7.964;2023-09-30T06:22:02;98166.19;;;12.74;100.00
43701;BME280;58809;47.984;7.964;2023-09-30T06:25:04;98170.28;;;12.85;100.00
43701;BME280;58809;47.984;7.964;2023-09-30T06:28:06;98169.47;;;12.84;100.00
43701;BME280;58809;47.984;7.964;2023-09-30T06:31:09;98187.75;;;12.79;100.00
43701;BME280;58809;47.984;7.964;2023-09-30T06:34:11;98181.63;;;12.70;100.00
43701;BME280;58809;47.984;7.964;2023-09-30T06:37:13;98191.22;;;12.80;100.00
43701;BME280;58809;47.984;7.964;2023-09-30T06:40:15;98173.88;;;13.00;100.00
43701;BME280;58809;47.984;7.964;2023-09-30T06:43:16;98176.13;;;13.20;100.00
43701;BME280;58809;47.984;7.964;2023-09-30T06:46:18;98192.81;;;13.45;100.00
43701;BME280;58809;47.984;7.964;2023-09-30T06:49:19;98195.31;;;13.70;100.00
43701;BME280;58809;47.984;7.964;2023-09-30T06:52:21;98197.16;;;13.92;100.00
43701;BME280;58809;47.984;7.964;2023-09-30T06:55:23;98210.44;;;14.15;100.00
43701;BME280;58809;47.984;7.964;2023-09-30T06:58:26;98224.41;;;14.32;100.00
43701;BME280;58809;47.984;7.964;2023-09-30T07:01:28;98224.38;;;14.40;100.00
43701;BME280;58809;47.984;7.964;2023-09-30T07:04:30;98222.53;;;14.56;100.00
43701;BME280;58809;47.984;7.964;2023-09-30T07:07:32;98233.47;;;14.69;100.00
43701;BME280;58809;47.984;7.964;2023-09-30T07:10:34;98232.34;;;14.78;100.00
43701;BME280;58809;47.984;7.964;2023-09-30T07:13:35;98228.78;;;15.01;100.00
43701;BME280;58809;47.984;7.964;2023-09-30T07:16:37;98230.88;;;15.20;100.00
43701;BME280;58809;47.984;7.964;2023-09-30T07:19:41;98239.06;;;15.34;100.00
43701;BME280;58809;47.984;7.964;2023-09-30T07:22:42;98239.41;;;15.31;100.00
43701;BME280;58809;47.984;7.964;2023-09-30T07:25:59;98230.56;;;15.45;100.00
43701;BME280;58809;47.984;7.964;2023-09-30T07:29:01;98224.56;;;15.58;100.00
43701;BME280;58809;47.984;7.964;2023-09-30T07:32:07;98228.75;;;15.82;100.00
43701;BME280;58809;47.984;7.964;2023-09-30T07:35:09;98221.25;;;15.92;100.00
43701;BME280;58809;47.984;7.964;2023-09-30T07:38:11;98223.09;;;16.13;100.00
43701;BME280;58809;47.984;7.964;2023-09-30T07:41:12;98217.28;;;16.31;100.00
43701;BME280;58809;47.984;7.964;2023-09-30T07:44:14;98217.06;;;16.54;100.00
43701;BME280;58809;47.984;7.964;2023-09-30T07:47:16;98246.16;;;16.92;100.00
43701;BME280;58809;47.984;7.964;2023-09-30T07:50:18;98256.19;;;17.25;100.00
43701;BME280;58809;47.984;7.964;2023-09-30T07:53:20;98268.25;;;17.49;96.72
43701;BME280;58809;47.984;7.964;2023-09-30T07:56:22;98265.78;;;17.48;94.68
43701;BME280;58809;47.984;7.964;2023-09-30T07:59:23;98245.56;;;17.39;92.70
43701;BME280;58809;47.984;7.964;2023-09-30T08:02:25;98245.28;;;17.20;93.18
43701;BME280;58809;47.984;7.964;2023-09-30T08:05:34;98234.25;;;17.43;93.74
43701;BME280;58809;47.984;7.964;2023-09-30T08:08:36;98231.06;;;17.68;93.04
43701;BME280;58809;47.984;7.964;2023-09-30T08:11:37;98234.03;;;17.93;91.28
43701;BME280;58809;47.984;7.964;2023-09-30T08:14:39;98235.59;;;17.74;89.44
43701;BME280;58809;47.984;7.964;2023-09-30T08:17:41;98240.19;;;17.87;89.11
43701;BME280;58809;47.984;7.964;2023-09-30T08:20:44;98229.13;;;18.37;86.81
43701;BME280;58809;47.984;7.964;2023-09-30T08:23:45;98215.72;;;18.63;84.03
43701;BME280;58809;47.984;7.964;2023-09-30T08:26:47;98207.06;;;18.35;83.88
43701;BME280;58809;47.984;7.964;2023-09-30T08:29:49;98210.38;;;18.23;83.33
43701;BME280;58809;47.984;7.964;2023-09-30T08:32:50;98218.22;;;18.45;83.00
43701;BME280;58809;47.984;7.964;2023-09-30T08:35:52;98235.94;;;18.99;80.95
43701;BME280;58809;47.984;7.964;2023-09-30T08:38:54;98227.63;;;19.08;79.31
43701;BME280;58809;47.984;7.964;2023-09-30T08:41:55;98227.88;;;18.73;79.19
43701;BME280;58809;47.984;7.964;2023-09-30T08:45:00;98245.41;;;18.55;80.89
43701;BME280;58809;47.984;7.964;2023-09-30T08:48:02;98261.13;;;18.85;80.75
43701;BME280;58809;47.984;7.964;2023-09-30T08:51:07;98257.75;;;19.10;79.04
43701;BME280;58809;47.984;7.964;2023-09-30T08:54:09;98273.34;;;19.39;78.51
43701;BME280;58809;47.984;7.964;2023-09-30T08:57:12;98275.94;;;19.66;77.66
43701;BME280;58809;47.984;7.964;2023-09-30T09:00:14;98273.28;;;19.59;76.24
43701;BME280;58809;47.984;7.964;2023-09-30T09:03:21;98265.03;;;19.61;76.15
43701;BME280;58809;47.984;7.964;2023-09-30T09:06:24;98254.59;;;19.91;75.91
43701;BME280;58809;47.984;7.964;2023-09-30T09:09:26;98251.78;;;19.66;75.33
43701;BME280;58809;47.984;7.964;2023-09-30T09:12:28;98245.91;;;19.37;76.19
43701;BME280;58809;47.984;7.964;2023-09-30T09:15:29;98252.38;;;19.16;76.70
43701;BME280;58809;47.984;7.964;2023-09-30T09:18:33;98249.47;;;19.24;77.28
43701;BME280;58809;47.984;7.964;2023-09-30T09:21:35;98243.47;;;19.29;76.95
43701;BME280;58809;47.984;7.964;2023-09-30T09:24:37;98240.34;;;19.39;75.94
43701;BME280;58809;47.984;7.964;2023-09-30T09:27:44;98231.28;;;19.33;76.59
43701;BME280;58809;47.984;7.964;2023-09-30T09:30:45;98215.28;;;19.97;74.77
43701;BME280;58809;47.984;7.964;2023-09-30T09:33:48;98216.22;;;19.71;74.59
43701;BME280;58809;47.984;7.964;2023-09-30T09:36:49;98209.25;;;19.63;74.98
43701;BME280;58809;47.984;7.964;2023-09-30T09:39:55;98211.56;;;19.98;74.81
43701;BME280;58809;47.984;7.964;2023-09-30T09:42:59;98205.44;;;20.16;74.21
43701;BME280;58809;47.984;7.964;2023-09-30T09:46:10;98197.34;;;20.23;73.25
43701;BME280;58809;47.984;7.964;2023-09-30T09:49:16;98187.06;;;20.13;73.50
43701;BME280;58809;47.984;7.964;2023-09-30T09:52:19;98175.75;;;20.54;73.66
43701;BME280;58809;47.984;7.964;2023-09-30T09:55:22;98174.25;;;20.84;72.01
43701;BME280;58809;47.984;7.964;2023-09-30T09:58:25;98179.25;;;20.99;71.32
43701;BME280;58809;47.984;7.964;2023-09-30T10:01:28;98180.09;;;20.99;71.46
43701;BME280;58809;47.984;7.964;2023-09-30T10:04:37;98173.13;;;21.10;71.20
43701;BME280;58809;47.984;7.964;2023-09-30T10:08:14;98176.34;;;21.00;70.02
43701;BME280;58809;47.984;7.964;2023-09-30T10:11:19;98175.66;;;21.23;69.67
43701;BME280;58809;47.984;7.964;2023-09-30T10:14:31;98180.94;;;21.30;68.65
43701;BME280;58809;47.984;7.964;2023-09-30T10:18:00;98174.56;;;21.61;68.40
43701;BME280;58809;47.984;7.964;2023-09-30T10:21:07;98180.81;;;21.73;68.04
43701;BME280;58809;47.984;7.964;2023-09-30T10:30:26;98169.25;;;21.85;66.44
43701;BME280;58809;47.984;7.964;2023-09-30T10:33:28;98176.19;;;22.35;64.42
43701;BME280;58809;47.984;7.964;2023-09-30T10:36:31;98169.84;;;22.29;62.28
43701;BME280;58809;47.984;7.964;2023-09-30T10:39:56;98164.34;;;22.71;60.71
43701;BME280;58809;47.984;7.964;2023-09-30T10:42:59;98164.41;;;22.05;59.37
43701;BME280;58809;47.984;7.964;2023-09-30T10:52:30;98164.72;;;21.97;59.48
43701;BME280;58809;47.984;7.964;2023-09-30T10:55:33;98163.19;;;22.55;59.50
43701;BME280;58809;47.984;7.964;2023-09-30T10:58:44;98165.03;;;22.55;58.60
43701;BME280;58809;47.984;7.964;2023-09-30T11:01:46;98155.94;;;22.44;59.02
43701;BME280;58809;47.984;7.964;2023-09-30T11:04:48;98159.16;;;23.05;58.44
43701;BME280;58809;47.984;7.964;2023-09-30T11:07:52;98162.28;;;23.25;58.17
43701;BME280;58809;47.984;7.964;2023-09-30T11:10:54;98160.31;;;23.09;59.13
43701;BME280;58809;47.984;7.964;2023-09-30T11:13:56;98157.28;;;22.11;61.08
43701;BME280;58809;47.984;7.964;2023-09-30T11:17:02;98153.09;;;22.51;61.61
43701;BME280;58809;47.984;7.964;2023-09-30T11:20:06;98156.50;;;22.70;61.81
43701;BME280;58809;47.984;7.964;2023-09-30T11:23:08;98147.69;;;22.74;61.16
43701;BME280;58809;47.984;7.964;2023-09-30T11:26:10;98150.84;;;23.35;60.24
43701;BME280;58809;47.984;7.964;2023-09-30T11:29:15;98143.19;;;23.15;59.56
43701;BME280;58809;47.984;7.964;2023-09-30T11:32:28;98144.78;;;23.57;58.81
43701;BME280;58809;47.984;7.964;2023-09-30T11:35:30;98142.66;;;23.59;58.34
43701;BME280;58809;47.984;7.964;2023-09-30T11:38:34;98130.88;;;23.65;57.55
43701;BME280;58809;47.984;7.964;2023-09-30T11:41:38;98133.16;;;25.36;54.92
43701;BME280;58809;47.984;7.964;2023-09-30T11:44:44;98132.53;;;28.67;48.41
43701;BME280;58809;47.984;7.964;2023-09-30T11:47:46;98112.84;;;30.24;43.37
43701;BME280;58809;47.984;7.964;2023-09-30T11:50:48;60547.97;;;-144.80;100.00
43701;BME280;58809;47.984;7.964;2023-09-30T11:53:52;60547.97;;;-144.80;100.00
43701;BME280;58809;47.984;7.964;2023-09-30T11:57:00;60547.97;;;-144.80;100.00
43701;BME280;58809;47.984;7.964;2023-09-30T12:00:04;60547.97;;;-144.80;100.00
43701;BME280;58809;47.984;7.964;2023-09-30T12:03:14;60547.97;;;-144.80;100.00
43701;BME280;58809;47.984;7.964;2023-09-30T12:06:16;60547.97;;;-144.80;100.00
43701;BME280;58809;47.984;7.964;2023-09-30T12:09:17;60547.97;;;-144.80;100.00
43701;BME280;58809;47.984;7.964;2023-09-30T12:12:23;60547.97;;;-144.80;100.00
43701;BME280;58809;47.984;7.964;2023-09-30T12:15:25;60547.97;;;-144.80;100.00
43701;BME280;58809;47.984;7.964;2023-09-30T12:18:28;98107.16;;;35.70;32.80
43701;BME280;58809;47.984;7.964;2023-09-30T12:21:29;60547.97;;;-144.80;100.00
43701;BME280;58809;47.984;7.964;2023-09-30T12:24:31;60547.97;;;-144.80;100.00
43701;BME280;58809;47.984;7.964;2023-09-30T12:27:33;60547.97;;;-144.80;100.00
43701;BME280;58809;47.984;7.964;2023-09-30T12:30:34;98081.13;;;29.60;39.63
43701;BME280;58809;47.984;7.964;2023-09-30T12:33:36;98083.22;;;30.07;39.75
43701;BME280;58809;47.984;7.964;2023-09-30T12:36:39;98084.34;;;30.06;39.61
43701;BME280;58809;47.984;7.964;2023-09-30T12:39:40;98079.69;;;29.33;39.93
43701;BME280;58809;47.984;7.964;2023-09-30T12:42:43;60547.97;;;-144.80;100.00
43701;BME280;58809;47.984;7.964;2023-09-30T12:45:46;60547.97;;;-144.80;100.00
43701;BME280;58809;47.984;7.964;2023-09-30T12:48:48;60547.97;;;-144.80;100.00
43701;BME280;58809;47.984;7.964;2023-09-30T12:51:50;60547.97;;;-144.80;100.00
43701;BME280;58809;47.984;7.964;2023-09-30T12:54:52;60547.97;;;-144.80;100.00
43701;BME280;58809;47.984;7.964;2023-09-30T12:57:53;60547.97;;;-144.80;100.00
43701;BME280;58809;47.984;7.964;2023-09-30T13:00:56;60547.97;;;-144.80;100.00
43701;BME280;58809;47.984;7.964;2023-09-30T13:04:16;98092.69;;;36.73;31.57
43701;BME280;58809;47.984;7.964;2023-09-30T13:07:18;98095.84;;;36.84;30.77
43701;BME280;58809;47.984;7.964;2023-09-30T13:10:19;60547.97;;;-144.80;100.00
43701;BME280;58809;47.984;7.964;2023-09-30T13:13:21;98081.50;;;31.75;34.94
43701;BME280;58809;47.984;7.964;2023-09-30T13:16:22;60547.97;;;-144.80;100.00
43701;BME280;58809;47.984;7.964;2023-09-30T13:19:25;60547.97;;;-144.80;100.00
43701;BME280;58809;47.984;7.964;2023-09-30T13:22:26;60547.97;;;-144.80;100.00
43701;BME280;58809;47.984;7.964;2023-09-30T13:25:29;60547.97;;;-144.80;100.00
43701;BME280;58809;47.984;7.964;2023-09-30T13:28:30;98081.50;;;31.75;34.94
43701;BME280;58809;47.984;7.964;2023-09-30T13:31:32;98076.50;;;27.78;41.91
43701;BME280;58809;47.984;7.964;2023-09-30T13:34:34;98086.28;;;27.54;42.46
43701;BME280;58809;47.984;7.964;2023-09-30T13:37:35;98088.47;;;27.77;42.36
43701;BME280;58809;47.984;7.964;2023-09-30T13:40:38;98087.75;;;27.03;44.20
43701;BME280;58809;47.984;7.964;2023-09-30T13:43:41;98094.50;;;26.43;43.45
43701;BME280;58809;47.984;7.964;2023-09-30T13:46:43;98085.25;;;25.20;45.33
43701;BME280;58809;47.984;7.964;2023-09-30T13:49:45;98081.41;;;24.88;46.19
43701;BME280;58809;47.984;7.964;2023-09-30T14:07:26;98071.38;;;24.28;49.04
43701;BME280;58809;47.984;7.964;2023-09-30T14:10:29;98073.56;;;23.63;49.67
43701;BME280;58809;47.984;7.964;2023-09-30T14:13:31;98077.13;;;23.52;50.01
43701;BME280;58809;47.984;7.964;2023-09-30T14:16:34;98072.78;;;25.41;47.53
43701;BME280;58809;47.984;7.964;2023-09-30T14:19:38;98067.66;;;26.04;44.99
43701;BME280;58809;47.984;7.964;2023-09-30T14:22:40;98063.75;;;26.75;43.54
43701;BME280;58809;47.984;7.964;2023-09-30T14:25:41;98066.44;;;27.53;41.42
43701;BME280;58809;47.984;7.964;2023-09-30T14:28:44;98065.34;;;27.80;41.08
43701;BME280;58809;47.984;7.964;2023-09-30T14:31:46;98067.78;;;29.13;39.63
43701;BME280;58809;47.984;7.964;2023-09-30T14:34:48;98065.88;;;29.59;39.16
43701;BME280;58809;47.984;7.964;2023-09-30T14:37:50;98059.28;;;-97.56;100.00
43701;BME280;58809;47.984;7.964;2023-09-30T14:40:52;98062.59;;;25.85;43.81
43701;BME280;58809;47.984;7.964;2023-09-30T14:43:54;98060.75;;;25.59;45.84
43701;BME280;58809;47.984;7.964;2023-09-30T14:46:56;98065.91;;;26.67;44.13
43701;BME280;58809;47.984;7.964;2023-09-30T14:49:59;98061.56;;;28.01;42.17
43701;BME280;58809;47.984;7.964;2023-09-30T14:53:03;98058.84;;;28.07;41.75
43701;BME280;58809;47.984;7.964;2023-09-30T14:56:16;98054.16;;;29.13;40.17
43701;BME280;58809;47.984;7.964;2023-09-30T14:59:18;98055.84;;;29.49;39.53
43701;BME280;58809;47.984;7.964;2023-09-30T15:02:20;98061.13;;;29.74;39.82
43701;BME280;58809;47.984;7.964;2023-09-30T15:05:22;98060.56;;;30.12;40.08
43701;BME280;58809;47.984;7.964;2023-09-30T15:08:24;98065.16;;;29.43;40.89
43701;BME280;58809;47.984;7.964;2023-09-30T15:11:26;98060.06;;;28.71;41.66
43701;BME280;58809;47.984;7.964;2023-09-30T15:14:28;98057.47;;;28.09;42.23
43701;BME280;58809;47.984;7.964;2023-09-30T15:17:29;98047.69;;;27.93;43.12
43701;BME280;58809;47.984;7.964;2023-09-30T15:20:37;98054.78;;;27.94;43.36
43701;BME280;58809;47.984;7.964;2023-09-30T15:23:40;98043.88;;;27.83;43.43
43701;BME280;58809;47.984;7.964;2023-09-30T15:26:42;98046.84;;;27.51;43.53
43701;BME280;58809;47.984;7.964;2023-09-30T15:29:44;98053.72;;;26.80;44.29
43701;BME280;58809;47.984;7.964;2023-09-30T15:32:46;98054.91;;;26.47;45.70
43701;BME280;58809;47.984;7.964;2023-09-30T15:35:47;98058.47;;;26.05;46.88
43701;BME280;58809;47.984;7.964;2023-09-30T15:38:49;98058.28;;;25.89;47.13
43701;BME280;58809;47.984;7.964;2023-09-30T15:41:52;98066.44;;;25.57;48.18
43701;BME280;58809;47.984;7.964;2023-09-30T15:44:53;98065.91;;;25.33;48.56
43701;BME280;58809;47.984;7.964;2023-09-30T15:47:57;98071.09;;;25.12;48.97
43701;BME280;58809;47.984;7.964;2023-09-30T15:50:59;98071.91;;;24.86;49.20
43701;BME280;58809;47.984;7.964;2023-09-30T15:54:01;98069.03;;;24.53;48.96
43701;BME280;58809;47.984;7.964;2023-09-30T15:57:02;98073.16;;;23.71;51.02
43701;BME280;58809;47.984;7.964;2023-09-30T16:00:04;98078.22;;;22.81;53.89
43701;BME280;58809;47.984;7.964;2023-09-30T16:03:08;98080.13;;;21.75;57.46
43701;BME280;58809;47.984;7.964;2023-09-30T16:06:10;98071.97;;;20.90;60.44
43701;BME280;58809;47.984;7.964;2023-09-30T16:09:12;98077.44;;;20.22;62.75
43701;BME280;58809;47.984;7.964;2023-09-30T16:12:13;98081.16;;;19.70;65.06
43701;BME280;58809;47.984;7.964;2023-09-30T16:15:15;98078.72;;;19.30;66.97
43701;BME280;58809;47.984;7.964;2023-09-30T16:18:16;98077.69;;;18.93;68.89
43701;BME280;58809;47.984;7.964;2023-09-30T16:21:18;98085.03;;;18.52;70.76
43701;BME280;58809;47.984;7.964;2023-09-30T16:24:21;98097.69;;;18.12;71.98
43701;BME280;58809;47.984;7.964;2023-09-30T16:27:22;98088.81;;;17.84;73.69